Grass Lake, MI (49240)

02:31 AM EDT del 08 Luglio 2015 (GMT -0400)
South of I-94 in Grass Lake Michigan | | Change Station
CLOSE
Current Station
Stazione meteo personale
Location: Grass Lake Charter Township, MI
Altitudine: 1010 ft
Stazioni meteo nelle vicinanze

Alt. 1010 ft 42.28 °N, 84.19 °W | Updated 25 seconds ago

Coperto
Coperto
62.2 °F
Sembra 62.2 °F
N
0.0
Vento Variabile Vento da NE
Gusts 1.0 mph

Oggi
Massima -- | Minima -- °F
--% Possibilità di precip.
Ieri
Massima -- | Minima -- °F
Precip. -- in
6:08 AM 9:15 PM
Gobba a levante, 57% visible
Pressione 30.07 in
Visibilità 10.0 miglia
Nuvole Coperto 3600 ft
Punto di rugiada 44 °F
Umidità 52%
Piovosità 0.00 in
Spessore del manto nevoso Non disponibile.
Raggi UV 0 fuori da 12
Polline .50 fuori da 12
Qualità dell'aria Non disponibile.
Flu Activity Non disponibile.
METAR KJXN 080556Z 00000KT 10SM OVC036 14/12 A3007 RMK AO2 SLP182 T01390117 10178 20117 51007

More Conditions Fewer Conditions

Pressione 30.07 in
Visibilità 10.0 miglia
Nuvole Coperto 3600 ft
Punto di rugiada 44 °F
Umidità 52%
Piovosità 0.00 in
Spessore del manto nevoso Non disponibile.
Raggi UV 0 fuori da 12
Polline .50 fuori da 12
Qualità dell'aria Non disponibile.
Flu Activity Non disponibile.
METAR KJXN 080556Z 00000KT 10SM OVC036 14/12 A3007 RMK AO2 SLP182 T01390117 10178 20117 51007

More Conditions Fewer Conditions

10-Day Weather Forecast

×

Almanac

Astronomia

Jul. 08, 2015 Alba Tramonto
Ora attuale
Crepuscolo civile
Crepuscolo nautico
Crepuscolo astronomico
Luna
Estensione della luce visibile
Lunghezza del giorno
Tomorrow will be .
, % of the Moon is Illuminated

Gli estremi di oggi

State Highs State Lows

Community

WunderPhotos

Upload Photos

1,836,064 foto caricate!

WunderBlogs® & News

Nearby

Qualità dell'aria

  Qualità dell'aria Indice AQ Inquinante
Not available.

Profondità neve

Stazione Profondità Altitudine

Attività sismica

Città  Distanza Mag. Data & Ora
Minimo Magnitudo Mostrato è 2.5.

Temperature delle acque costiere

Località Temperatura

Stations

Stazioni meteo nelle vicinanze

Ubicazione della stazione Temp. Raffreddamento del vento Punto di rugiada Umidità Vento Precip. Alt. Aggiornato Tipo